createdAt,value
2019-03-26T00:00:07.629Z,13.80
2019-03-26T00:01:07.623Z,15.40
2019-03-26T00:02:07.619Z,16.00
2019-03-26T00:03:07.598Z,12.50
2019-03-26T00:04:07.615Z,12.90
2019-03-26T00:05:07.575Z,12.40
2019-03-26T00:06:07.565Z,15.50
2019-03-26T00:07:07.554Z,14.10
2019-03-26T00:08:07.543Z,14.60
2019-03-26T00:09:07.554Z,11.70
2019-03-26T00:10:07.548Z,18.00
2019-03-26T00:11:07.512Z,12.30
2019-03-26T00:12:07.506Z,10.30
2019-03-26T00:13:07.489Z,14.60
2019-03-26T00:14:07.502Z,13.10
2019-03-26T00:15:07.468Z,16.30
2019-03-26T00:16:07.464Z,17.70
2019-03-26T00:17:07.446Z,10.80
2019-03-26T00:18:07.440Z,14.00
2019-03-26T00:19:07.455Z,13.20
2019-03-26T00:20:07.419Z,16.50
2019-03-26T00:21:07.418Z,20.80
2019-03-26T00:22:07.396Z,13.70
2019-03-26T00:23:07.435Z,14.20
2019-03-26T00:24:07.430Z,14.50
2019-03-26T00:25:07.387Z,19.00
2019-03-26T00:26:07.352Z,11.00
2019-03-26T00:27:08.041Z,11.30
2019-03-26T00:28:07.338Z,13.50
2019-03-26T00:29:07.351Z,15.80
2019-03-26T00:30:07.313Z,13.80
2019-03-26T00:31:07.319Z,16.00
2019-03-26T00:32:07.329Z,15.30
2019-03-26T00:33:07.276Z,11.70
2019-03-26T00:34:18.772Z,9.80
2019-03-26T00:35:08.256Z,13.30
2019-03-26T00:36:07.251Z,15.30
2019-03-26T00:37:07.264Z,14.60
2019-03-26T00:38:07.229Z,17.30
2019-03-26T00:39:07.238Z,14.50
2019-03-26T00:40:07.203Z,15.70
2019-03-26T00:41:07.201Z,12.00
2019-03-26T00:42:07.183Z,13.00
2019-03-26T00:43:07.183Z,14.30
2019-03-26T00:44:07.181Z,14.50
2019-03-26T00:45:07.173Z,11.80
2019-03-26T00:46:07.145Z,11.90
2019-03-26T00:47:07.133Z,15.90
2019-03-26T00:48:07.123Z,13.00
2019-03-26T00:49:07.127Z,10.20
2019-03-26T00:50:07.138Z,13.20
2019-03-26T00:51:07.089Z,10.50
2019-03-26T00:52:07.083Z,12.20
2019-03-26T00:53:07.098Z,14.10
2019-03-26T00:54:07.135Z,12.10
2019-03-26T00:55:07.042Z,12.10
2019-03-26T00:56:07.040Z,13.00
2019-03-26T00:57:07.028Z,13.10
2019-03-26T00:58:07.036Z,11.00
2019-03-26T00:59:07.003Z,14.40
2019-03-26T01:00:07.039Z,9.90
2019-03-26T01:01:07.014Z,13.60
2019-03-26T01:02:06.971Z,16.40
2019-03-26T01:03:06.969Z,17.50
2019-03-26T01:04:06.957Z,12.30
2019-03-26T01:05:06.961Z,11.60
2019-03-26T01:06:06.929Z,16.10
2019-03-26T01:07:06.915Z,18.80
2019-03-26T01:08:06.909Z,13.20
2019-03-26T01:09:06.898Z,16.80
2019-03-26T01:10:06.912Z,17.00
2019-03-26T01:11:06.873Z,17.40
2019-03-26T01:12:06.867Z,15.90
2019-03-26T01:13:06.853Z,12.30
2019-03-26T01:14:06.848Z,10.20
2019-03-26T01:15:06.864Z,15.80
2019-03-26T01:16:06.824Z,15.90
2019-03-26T01:17:06.812Z,14.00
2019-03-26T01:18:06.799Z,15.00
2019-03-26T01:19:06.814Z,11.10
2019-03-26T01:20:06.782Z,15.70
2019-03-26T01:21:06.790Z,13.40
2019-03-26T01:22:06.760Z,14.40
2019-03-26T01:23:06.749Z,12.90
2019-03-26T01:24:06.741Z,11.00
2019-03-26T01:25:06.759Z,12.70
2019-03-26T01:26:06.715Z,12.30
2019-03-26T01:27:06.706Z,16.10
2019-03-26T01:28:06.692Z,8.60
2019-03-26T01:29:06.681Z,10.40
2019-03-26T01:30:06.684Z,13.00
2019-03-26T01:31:06.683Z,12.30
2019-03-26T01:32:06.657Z,16.10
2019-03-26T01:33:06.647Z,15.60
2019-03-26T01:34:06.632Z,14.00
2019-03-26T01:35:06.624Z,12.10
2019-03-26T01:36:06.631Z,15.60
2019-03-26T01:37:06.599Z,13.80
2019-03-26T01:38:06.594Z,13.40
2019-03-26T01:39:06.580Z,11.50
2019-03-26T01:40:06.576Z,13.20
2019-03-26T01:41:06.554Z,17.20
2019-03-26T01:42:06.569Z,12.50
2019-03-26T01:43:06.534Z,13.00
2019-03-26T01:44:06.527Z,15.50
2019-03-26T01:45:06.514Z,14.90
2019-03-26T01:46:06.528Z,10.60
2019-03-26T01:47:06.516Z,15.10
2019-03-26T01:48:06.482Z,11.90
2019-03-26T01:49:06.470Z,12.20
2019-03-26T01:50:06.464Z,12.20
2019-03-26T01:51:06.449Z,10.30
2019-03-26T01:52:06.457Z,14.30
2019-03-26T01:53:06.426Z,12.60
2019-03-26T01:54:06.419Z,8.60
2019-03-26T01:55:06.405Z,12.80
2019-03-26T01:56:06.403Z,12.80
2019-03-26T01:57:06.406Z,12.50
2019-03-26T01:58:06.377Z,12.50
2019-03-26T01:59:06.366Z,10.90
2019-03-26T02:00:06.354Z,12.30
2019-03-26T02:01:06.343Z,15.30
2019-03-26T02:02:06.359Z,11.80
2019-03-26T02:03:06.360Z,11.70
2019-03-26T02:04:06.316Z,11.50
2019-03-26T02:05:06.302Z,14.20
2019-03-26T02:06:06.290Z,16.10
2019-03-26T02:07:06.302Z,11.20
2019-03-26T02:08:06.268Z,13.00
2019-03-26T02:09:06.263Z,11.50
2019-03-26T02:10:06.259Z,12.80
2019-03-26T02:11:06.234Z,11.30
2019-03-26T02:12:06.247Z,11.90
2019-03-26T02:13:06.255Z,9.50
2019-03-26T02:14:06.207Z,11.70
2019-03-26T02:15:06.203Z,15.40
2019-03-26T02:16:06.187Z,15.80
2019-03-26T02:17:06.207Z,9.50
2019-03-26T02:18:06.163Z,13.20
2019-03-26T02:19:06.150Z,10.40
2019-03-26T02:20:06.145Z,15.40
2019-03-26T02:21:06.129Z,12.00
2019-03-26T02:22:06.153Z,10.80
2019-03-26T02:23:06.115Z,7.90
2019-03-26T02:24:06.097Z,10.00
2019-03-26T02:25:06.086Z,11.00
2019-03-26T02:26:06.076Z,13.80
2019-03-26T02:27:06.094Z,11.90
2019-03-26T02:28:06.067Z,8.70
2019-03-26T02:29:06.044Z,10.60
2019-03-26T02:30:06.035Z,9.70
2019-03-26T02:31:06.028Z,12.20
2019-03-26T02:32:06.038Z,11.90
2019-03-26T02:33:06.005Z,13.70
2019-03-26T02:34:06.003Z,10.00
2019-03-26T02:35:17.903Z,12.50
2019-03-26T02:36:06.971Z,12.40
2019-03-26T02:37:05.977Z,13.10
2019-03-26T02:38:05.964Z,10.40
2019-03-26T02:39:05.943Z,9.30
2019-03-26T02:40:05.937Z,11.00
2019-03-26T02:41:05.919Z,11.60
2019-03-26T02:42:05.925Z,8.50
2019-03-26T02:43:05.910Z,9.10
2019-03-26T02:44:05.890Z,10.70
2019-03-26T02:45:05.875Z,9.00
2019-03-26T02:46:05.867Z,11.90
2019-03-26T02:47:05.874Z,9.50
2019-03-26T02:48:05.849Z,10.20
2019-03-26T02:49:05.838Z,11.90
2019-03-26T02:50:05.826Z,14.10
2019-03-26T02:51:05.858Z,9.80
2019-03-26T02:52:05.813Z,9.30
2019-03-26T02:53:08.647Z,10.80
2019-03-26T02:54:05.779Z,11.80
2019-03-26T02:55:05.775Z,9.20
2019-03-26T02:56:05.760Z,9.10
2019-03-26T02:57:05.750Z,11.10
2019-03-26T02:58:05.756Z,10.80
2019-03-26T02:59:05.740Z,13.60
2019-03-26T03:00:05.714Z,11.00
2019-03-26T03:01:05.706Z,10.90
2019-03-26T03:02:05.695Z,12.50
2019-03-26T03:03:05.706Z,13.70
2019-03-26T03:04:05.679Z,11.10
2019-03-26T03:05:05.663Z,15.10
2019-03-26T03:06:05.653Z,14.00
2019-03-26T03:07:05.669Z,10.40
2019-03-26T03:08:05.665Z,11.80
2019-03-26T03:09:05.632Z,12.60
2019-03-26T03:10:05.611Z,10.10
2019-03-26T03:11:05.599Z,11.20
2019-03-26T03:12:05.599Z,9.00
2019-03-26T03:13:05.602Z,9.60
2019-03-26T03:14:05.567Z,11.00
2019-03-26T03:15:05.559Z,12.80
2019-03-26T03:16:05.550Z,14.20
2019-03-26T03:17:05.561Z,10.00
2019-03-26T03:18:05.556Z,9.60
2019-03-26T03:19:05.515Z,9.90
2019-03-26T03:20:05.506Z,14.70
2019-03-26T03:21:05.499Z,12.50
2019-03-26T03:22:05.612Z,8.00
2019-03-26T03:23:05.509Z,13.70
2019-03-26T03:24:05.461Z,4.80
2019-03-26T03:25:05.448Z,11.50
2019-03-26T03:26:05.448Z,10.80
2019-03-26T03:27:05.430Z,13.10
2019-03-26T03:28:05.501Z,11.10
2019-03-26T03:29:05.412Z,15.30
2019-03-26T03:30:05.398Z,14.90
2019-03-26T03:31:05.388Z,13.80
2019-03-26T03:32:05.388Z,9.90
2019-03-26T03:33:05.387Z,9.40
2019-03-26T03:34:05.376Z,10.40
2019-03-26T03:35:05.349Z,11.50
2019-03-26T03:36:05.332Z,10.10
2019-03-26T03:37:05.329Z,13.40
2019-03-26T03:38:05.319Z,11.80
2019-03-26T03:39:05.317Z,10.60
2019-03-26T03:40:05.306Z,10.70
2019-03-26T03:41:05.286Z,13.40
2019-03-26T03:42:05.279Z,14.10
2019-03-26T03:43:05.257Z,13.50
2019-03-26T03:44:05.277Z,13.00
2019-03-26T03:45:05.237Z,17.90
2019-03-26T03:46:05.245Z,17.90
2019-03-26T03:47:05.212Z,13.70
2019-03-26T03:48:05.204Z,10.50
2019-03-26T03:49:05.257Z,13.90
2019-03-26T03:50:05.199Z,11.90
2019-03-26T03:51:05.176Z,13.20
2019-03-26T03:52:05.169Z,14.80
2019-03-26T03:53:05.149Z,14.00
2019-03-26T03:54:05.159Z,12.60
2019-03-26T03:55:05.131Z,12.50
2019-03-26T03:56:05.123Z,10.60
2019-03-26T03:57:05.124Z,14.60
2019-03-26T03:58:05.111Z,13.80
2019-03-26T03:59:05.192Z,13.20
2019-03-26T04:00:05.232Z,12.90
2019-03-26T04:01:05.065Z,12.30
2019-03-26T04:02:05.056Z,11.60
2019-03-26T04:03:05.054Z,11.90
2019-03-26T04:04:05.043Z,12.70
2019-03-26T04:05:05.082Z,13.70
2019-03-26T04:06:09.667Z,17.90
2019-03-26T04:07:06.004Z,21.40
2019-03-26T04:08:05.002Z,14.90
2019-03-26T04:09:04.985Z,10.60
2019-03-26T04:10:04.980Z,10.20
2019-03-26T04:11:04.982Z,13.10
2019-03-26T04:12:04.956Z,16.00
2019-03-26T04:13:04.956Z,28.00
2019-03-26T04:14:04.936Z,23.40
2019-03-26T04:15:04.934Z,33.70
2019-03-26T04:16:04.926Z,31.50
2019-03-26T04:17:04.900Z,21.80
2019-03-26T04:18:04.900Z,20.10
2019-03-26T04:19:04.874Z,38.50
2019-03-26T04:20:04.867Z,32.00
2019-03-26T04:21:04.871Z,23.70
2019-03-26T04:22:04.848Z,25.50
2019-03-26T04:23:04.829Z,29.30
2019-03-26T04:24:04.822Z,28.30
2019-03-26T04:25:04.828Z,29.70
2019-03-26T04:26:04.820Z,38.20
2019-03-26T04:27:04.789Z,24.20
2019-03-26T04:28:04.780Z,23.20
2019-03-26T04:29:04.766Z,19.30
2019-03-26T04:30:04.765Z,21.60
2019-03-26T04:31:04.803Z,29.80
2019-03-26T04:32:04.741Z,31.60
2019-03-26T04:33:04.728Z,31.20
2019-03-26T04:34:04.717Z,28.00
2019-03-26T04:35:04.704Z,31.00
2019-03-26T04:36:04.728Z,31.50
2019-03-26T04:37:04.686Z,33.90
2019-03-26T04:38:04.677Z,34.60
2019-03-26T04:39:04.660Z,37.50
2019-03-26T04:40:04.651Z,30.40
2019-03-26T04:41:04.697Z,36.50
2019-03-26T04:42:04.630Z,32.90
2019-03-26T04:43:04.620Z,30.40
2019-03-26T04:44:04.608Z,33.20
2019-03-26T04:45:12.147Z,33.30
2019-03-26T04:46:04.611Z,32.40
2019-03-26T04:47:04.578Z,20.20
2019-03-26T04:48:04.567Z,24.40
2019-03-26T04:49:04.554Z,19.40
2019-03-26T04:50:04.542Z,15.80
2019-03-26T04:51:04.552Z,12.30
2019-03-26T04:52:04.528Z,15.10
2019-03-26T04:53:04.511Z,14.90
2019-03-26T04:54:04.502Z,10.60
2019-03-26T04:55:04.488Z,9.40
2019-03-26T04:56:04.499Z,14.20
2019-03-26T04:57:04.480Z,18.50
2019-03-26T04:58:04.457Z,16.10
2019-03-26T04:59:04.448Z,11.30
2019-03-26T05:00:04.436Z,16.00
2019-03-26T05:01:04.448Z,20.20
2019-03-26T05:02:04.414Z,21.10
2019-03-26T05:03:04.403Z,22.40
2019-03-26T05:04:04.392Z,20.40
2019-03-26T05:05:04.380Z,21.70
2019-03-26T05:06:04.399Z,21.30
2019-03-26T05:07:04.360Z,16.50
2019-03-26T05:08:04.347Z,19.00
2019-03-26T05:09:04.344Z,17.60
2019-03-26T05:10:04.393Z,17.80
2019-03-26T05:11:04.340Z,13.40
2019-03-26T05:12:04.305Z,14.70
2019-03-26T05:13:04.293Z,13.00
2019-03-26T05:14:04.290Z,10.70
2019-03-26T05:15:04.277Z,10.70
2019-03-26T05:16:04.284Z,12.40
2019-03-26T05:17:04.252Z,12.90
2019-03-26T05:18:04.248Z,11.60
2019-03-26T05:19:04.229Z,12.70
2019-03-26T05:20:04.222Z,15.30
2019-03-26T05:21:04.229Z,11.00
2019-03-26T05:22:04.220Z,14.20
2019-03-26T05:23:04.192Z,14.00
2019-03-26T05:24:04.183Z,14.50
2019-03-26T05:25:04.174Z,13.40
2019-03-26T05:26:04.188Z,15.20
2019-03-26T05:27:04.183Z,17.80
2019-03-26T05:28:04.143Z,13.80
2019-03-26T05:29:07.714Z,13.60
2019-03-26T05:30:04.146Z,15.60
2019-03-26T05:31:04.122Z,12.80
2019-03-26T05:32:04.091Z,10.20
2019-03-26T05:33:04.088Z,16.00
2019-03-26T05:34:04.073Z,12.20
2019-03-26T05:35:04.067Z,11.60
2019-03-26T05:36:04.088Z,13.80
2019-03-26T05:37:04.052Z,14.70
2019-03-26T05:38:04.037Z,14.70
2019-03-26T05:39:04.025Z,13.50
2019-03-26T05:40:04.032Z,11.40
2019-03-26T05:41:04.027Z,10.70
2019-03-26T05:42:03.987Z,11.00
2019-03-26T05:43:03.983Z,10.80
2019-03-26T05:44:03.967Z,11.30
2019-03-26T05:45:03.953Z,9.10
2019-03-26T05:46:03.964Z,13.90
2019-03-26T05:47:03.934Z,11.50
2019-03-26T05:48:03.924Z,9.70
2019-03-26T05:49:03.913Z,11.90
2019-03-26T05:50:03.902Z,10.30
2019-03-26T05:51:03.909Z,8.40
2019-03-26T05:52:03.880Z,12.10
2019-03-26T05:53:03.889Z,12.40
2019-03-26T05:54:03.857Z,11.70
2019-03-26T05:55:03.855Z,12.60
2019-03-26T05:56:03.863Z,17.30
2019-03-26T05:57:03.831Z,14.40
2019-03-26T05:58:03.822Z,14.70
2019-03-26T05:59:03.805Z,24.50
2019-03-26T06:00:03.815Z,25.20
2019-03-26T06:01:03.807Z,34.40
2019-03-26T06:02:13.423Z,37.20
2019-03-26T06:03:04.767Z,41.10
2019-03-26T06:04:03.755Z,33.00
2019-03-26T06:05:03.739Z,35.90
2019-03-26T06:06:03.840Z,33.10
2019-03-26T06:07:05.051Z,43.20
2019-03-26T06:08:03.720Z,42.50
2019-03-26T06:09:03.697Z,25.80
2019-03-26T06:10:03.686Z,17.60
2019-03-26T06:11:03.697Z,21.90
2019-03-26T06:12:03.664Z,17.90
2019-03-26T06:13:03.658Z,15.40
2019-03-26T06:14:03.675Z,20.80
2019-03-26T06:15:03.638Z,20.50
2019-03-26T06:16:03.644Z,20.30
2019-03-26T06:17:03.616Z,16.70
2019-03-26T06:18:03.609Z,13.40
2019-03-26T06:19:03.592Z,20.30
2019-03-26T06:20:03.581Z,27.30
2019-03-26T06:21:03.590Z,25.60
2019-03-26T06:22:03.563Z,30.50
2019-03-26T06:23:03.571Z,33.20
2019-03-26T06:24:03.566Z,34.70
2019-03-26T06:25:03.536Z,33.80
2019-03-26T06:26:03.527Z,36.00
2019-03-26T06:27:03.519Z,38.40
2019-03-26T06:28:03.496Z,37.10
2019-03-26T06:29:03.480Z,27.60
2019-03-26T06:30:03.482Z,31.00
2019-03-26T06:31:03.458Z,32.50
2019-03-26T06:32:03.471Z,32.10
2019-03-26T06:33:03.440Z,31.40
2019-03-26T06:34:03.435Z,29.30
2019-03-26T06:35:03.415Z,24.60
2019-03-26T06:36:03.412Z,24.10
2019-03-26T06:37:03.420Z,28.80
2019-03-26T06:38:03.390Z,29.90
2019-03-26T06:39:03.373Z,27.40
2019-03-26T06:40:03.378Z,22.00
2019-03-26T06:41:03.363Z,26.40
2019-03-26T06:42:03.356Z,27.70
2019-03-26T06:43:03.352Z,31.80
2019-03-26T06:44:03.326Z,26.30
2019-03-26T06:45:03.308Z,25.60
2019-03-26T06:46:03.295Z,33.10
2019-03-26T06:47:03.302Z,24.20
2019-03-26T06:48:04.457Z,28.00
2019-03-26T06:49:03.275Z,35.30
2019-03-26T06:50:03.250Z,27.90
2019-03-26T06:51:03.247Z,25.10
2019-03-26T06:52:03.251Z,21.50
2019-03-26T06:53:03.231Z,29.70
2019-03-26T06:54:03.216Z,44.20
2019-03-26T06:55:03.199Z,36.40
2019-03-26T06:56:03.190Z,35.60
2019-03-26T06:57:03.217Z,35.20
2019-03-26T06:58:03.183Z,27.30
2019-03-26T06:59:03.160Z,25.60
2019-03-26T07:00:03.150Z,23.00
2019-03-26T07:01:03.134Z,23.00
2019-03-26T07:02:03.143Z,21.20
2019-03-26T07:03:03.119Z,26.80
2019-03-26T07:04:03.099Z,27.30
2019-03-26T07:05:03.091Z,26.80
2019-03-26T07:06:03.083Z,21.40
2019-03-26T07:07:03.091Z,17.50
2019-03-26T07:08:03.052Z,26.90
2019-03-26T07:09:03.055Z,24.50
2019-03-26T07:10:03.037Z,26.90
2019-03-26T07:11:03.027Z,22.00
2019-03-26T07:12:03.030Z,19.80
2019-03-26T07:13:03.013Z,22.00
2019-03-26T07:14:02.992Z,17.10
2019-03-26T07:15:02.980Z,18.30
2019-03-26T07:16:02.989Z,15.40
2019-03-26T07:17:02.980Z,15.80
2019-03-26T07:18:02.950Z,16.10
2019-03-26T07:19:02.930Z,16.30
2019-03-26T07:20:02.925Z,16.00
2019-03-26T07:21:02.916Z,12.50
2019-03-26T07:22:02.916Z,22.40
2019-03-26T07:23:02.902Z,14.30
2019-03-26T07:24:02.883Z,18.40
2019-03-26T07:25:02.868Z,19.80
2019-03-26T07:26:02.857Z,15.50
2019-03-26T07:27:02.864Z,16.20
2019-03-26T07:28:02.839Z,15.10
2019-03-26T07:29:02.824Z,20.60
2019-03-26T07:30:02.819Z,19.70
2019-03-26T07:31:02.807Z,15.20
2019-03-26T07:32:02.814Z,14.10
2019-03-26T07:33:02.806Z,20.00
2019-03-26T07:34:02.840Z,13.80
2019-03-26T07:35:02.762Z,14.80
2019-03-26T07:36:02.749Z,11.40
2019-03-26T07:37:02.773Z,15.60
2019-03-26T07:38:02.732Z,14.80
2019-03-26T07:39:02.720Z,19.80
2019-03-26T07:40:02.706Z,15.90
2019-03-26T07:41:02.695Z,18.30
2019-03-26T07:42:02.714Z,13.50
2019-03-26T07:43:02.680Z,14.60
2019-03-26T07:44:02.658Z,15.10
2019-03-26T07:45:02.659Z,13.50
2019-03-26T07:46:02.667Z,15.20
2019-03-26T07:47:02.653Z,19.50
2019-03-26T07:48:02.629Z,17.20
2019-03-26T07:49:02.632Z,17.30
2019-03-26T07:50:02.604Z,14.30
2019-03-26T07:51:02.613Z,13.40
2019-03-26T07:52:02.598Z,18.30
2019-03-26T07:53:02.568Z,15.00
2019-03-26T07:54:02.558Z,19.40
2019-03-26T07:55:02.556Z,17.00
2019-03-26T07:56:02.541Z,13.80
2019-03-26T07:57:02.549Z,17.30
2019-03-26T07:58:02.515Z,12.40
2019-03-26T07:59:02.503Z,17.40
2019-03-26T08:00:02.494Z,17.30
2019-03-26T08:01:02.484Z,14.20
2019-03-26T08:02:02.493Z,17.50
2019-03-26T08:03:02.461Z,19.30
2019-03-26T08:04:02.522Z,13.60
2019-03-26T08:05:02.445Z,17.40
2019-03-26T08:06:02.460Z,19.50
2019-03-26T08:07:02.432Z,13.50
2019-03-26T08:08:02.440Z,16.80
2019-03-26T08:09:02.406Z,16.30
2019-03-26T08:10:02.396Z,15.80
2019-03-26T08:11:02.376Z,14.10
2019-03-26T08:12:02.384Z,15.80
2019-03-26T08:13:02.399Z,17.30
2019-03-26T08:14:02.366Z,14.90
2019-03-26T08:15:02.365Z,18.70
2019-03-26T08:16:02.355Z,17.30
2019-03-26T08:17:02.367Z,14.50
2019-03-26T08:18:02.308Z,14.10
2019-03-26T08:19:02.307Z,17.60
2019-03-26T08:20:02.280Z,15.80
2019-03-26T08:21:02.275Z,11.00
2019-03-26T08:22:02.278Z,16.50
2019-03-26T08:23:02.334Z,12.70
2019-03-26T08:24:02.241Z,20.10
2019-03-26T08:25:02.237Z,19.00
2019-03-26T08:26:02.219Z,18.50
2019-03-26T08:27:02.229Z,15.40
2019-03-26T08:28:04.892Z,15.90
2019-03-26T08:29:02.184Z,13.60
2019-03-26T08:30:02.184Z,13.20
2019-03-26T08:31:02.168Z,14.40
2019-03-26T08:32:02.170Z,14.30
2019-03-26T08:33:02.140Z,14.00
2019-03-26T08:34:02.138Z,14.70
2019-03-26T08:35:02.122Z,13.80
2019-03-26T08:36:02.149Z,21.40
2019-03-26T08:37:02.121Z,12.90
2019-03-26T08:38:12.460Z,15.90
2019-03-26T08:39:03.079Z,14.20
2019-03-26T08:40:02.078Z,15.30
2019-03-26T08:41:02.062Z,17.70
2019-03-26T08:42:02.066Z,16.20
2019-03-26T08:43:02.047Z,11.10
2019-03-26T08:44:02.021Z,15.00
2019-03-26T08:45:02.014Z,11.20
2019-03-26T08:46:02.000Z,10.50
2019-03-26T08:47:02.014Z,16.30
2019-03-26T08:48:01.980Z,15.00
2019-03-26T08:49:01.969Z,10.30
2019-03-26T08:50:01.959Z,16.10
2019-03-26T08:51:01.955Z,12.00
2019-03-26T08:52:01.968Z,16.00
2019-03-26T08:53:01.928Z,12.70
2019-03-26T08:54:01.924Z,15.00
2019-03-26T08:55:04.379Z,13.60
2019-03-26T08:56:01.896Z,10.40
2019-03-26T08:57:01.908Z,13.20
2019-03-26T08:58:01.876Z,14.40
2019-03-26T08:59:01.869Z,13.70
2019-03-26T09:00:01.869Z,10.40
2019-03-26T09:01:01.846Z,14.50
2019-03-26T09:02:01.858Z,12.60
2019-03-26T09:03:01.828Z,11.60
2019-03-26T09:04:01.822Z,16.80
2019-03-26T09:05:01.826Z,14.60
2019-03-26T09:06:01.790Z,14.50
2019-03-26T09:07:01.813Z,16.90
2019-03-26T09:08:01.766Z,16.90
2019-03-26T09:09:01.760Z,14.50
2019-03-26T09:10:01.746Z,12.80
2019-03-26T09:11:01.734Z,13.70
2019-03-26T09:12:01.743Z,14.70
2019-03-26T09:13:01.728Z,11.30
2019-03-26T09:14:01.705Z,15.00
2019-03-26T09:15:01.696Z,13.00
2019-03-26T09:16:01.692Z,14.40
2019-03-26T09:17:01.696Z,17.40
2019-03-26T09:18:01.662Z,12.90
2019-03-26T09:19:01.653Z,12.10
2019-03-26T09:20:04.548Z,12.90
2019-03-26T09:21:01.636Z,16.80
2019-03-26T09:22:01.619Z,16.30
2019-03-26T09:23:01.641Z,15.60
2019-03-26T09:24:01.602Z,12.00
2019-03-26T09:25:01.585Z,15.10
2019-03-26T09:26:01.586Z,8.70
2019-03-26T09:27:01.566Z,13.40
2019-03-26T09:28:01.584Z,13.20
2019-03-26T09:29:03.463Z,10.70
2019-03-26T09:30:01.533Z,13.00
2019-03-26T09:31:01.524Z,11.20
2019-03-26T09:32:01.513Z,13.60
2019-03-26T09:33:01.509Z,10.10
2019-03-26T09:34:01.510Z,10.30
2019-03-26T09:35:01.493Z,14.60
2019-03-26T09:36:01.594Z,9.50
2019-03-26T09:37:01.462Z,12.10
2019-03-26T09:38:01.452Z,10.80
2019-03-26T09:39:01.451Z,11.70
2019-03-26T09:40:01.446Z,12.10
2019-03-26T09:41:01.417Z,12.10
2019-03-26T09:42:01.406Z,9.20
2019-03-26T09:43:01.396Z,10.50
2019-03-26T09:44:01.408Z,9.30
2019-03-26T09:45:01.977Z,6.80
2019-03-26T09:46:01.364Z,8.50
2019-03-26T09:47:01.374Z,9.50
2019-03-26T09:48:01.348Z,10.00
2019-03-26T09:49:01.331Z,10.30
2019-03-26T09:50:01.349Z,16.20
2019-03-26T09:51:01.314Z,9.00
2019-03-26T09:52:01.295Z,8.10
2019-03-26T09:53:01.292Z,11.00
2019-03-26T09:54:01.281Z,11.00
2019-03-26T09:55:01.285Z,10.80
2019-03-26T09:56:01.310Z,8.20
2019-03-26T09:57:01.242Z,8.90
2019-03-26T09:58:01.246Z,9.60
2019-03-26T09:59:01.222Z,7.30
2019-03-26T10:00:01.242Z,13.70
2019-03-26T10:01:01.251Z,8.90
2019-03-26T10:02:01.208Z,11.00
2019-03-26T10:03:01.193Z,5.60
2019-03-26T10:04:01.166Z,12.00
2019-03-26T10:05:01.201Z,15.10
2019-03-26T10:06:01.152Z,8.20
2019-03-26T10:07:01.153Z,10.00
2019-03-26T10:08:01.133Z,12.30
2019-03-26T10:09:01.115Z,11.10
2019-03-26T10:10:01.173Z,12.00
2019-03-26T10:11:01.092Z,10.90
2019-03-26T10:12:01.085Z,7.70
2019-03-26T10:13:01.078Z,15.30
2019-03-26T10:14:01.065Z,12.40
2019-03-26T10:15:01.268Z,9.00
2019-03-26T10:16:01.093Z,12.50
2019-03-26T10:17:01.033Z,17.10
2019-03-26T10:18:01.026Z,11.20
2019-03-26T10:19:01.009Z,13.50
2019-03-26T10:20:01.023Z,11.90
2019-03-26T10:21:00.990Z,12.90
2019-03-26T10:22:00.978Z,10.70
2019-03-26T10:23:00.965Z,8.50
2019-03-26T10:24:00.960Z,10.10
2019-03-26T10:25:00.973Z,11.30
2019-03-26T10:26:00.930Z,15.00
2019-03-26T10:27:00.921Z,12.80
2019-03-26T10:28:00.911Z,12.70
2019-03-26T10:29:15.108Z,12.90
2019-03-26T10:30:01.918Z,10.60
2019-03-26T10:31:00.886Z,12.30
2019-03-26T10:32:00.872Z,12.40
2019-03-26T10:33:00.860Z,12.00
2019-03-26T10:34:00.955Z,10.50
2019-03-26T10:35:00.858Z,15.00
2019-03-26T10:36:00.830Z,9.90
2019-03-26T10:37:00.828Z,14.00
2019-03-26T10:38:00.808Z,9.40
2019-03-26T10:39:05.588Z,15.90
2019-03-26T10:40:01.808Z,11.50
2019-03-26T10:41:00.771Z,13.10
2019-03-26T10:42:00.770Z,11.70
2019-03-26T10:43:00.751Z,12.90
2019-03-26T10:44:00.740Z,13.30
2019-03-26T10:45:01.496Z,13.20
2019-03-26T10:46:00.730Z,10.70
2019-03-26T10:47:00.705Z,13.00
2019-03-26T10:48:00.700Z,12.90
2019-03-26T10:49:00.699Z,12.50
2019-03-26T10:50:00.698Z,14.40
2019-03-26T10:51:00.703Z,15.50
2019-03-26T10:52:00.653Z,12.10
2019-03-26T10:53:00.659Z,10.00
2019-03-26T10:54:00.652Z,10.70
2019-03-26T10:55:00.644Z,13.00
2019-03-26T10:56:00.638Z,12.60
2019-03-26T10:57:00.600Z,12.60
2019-03-26T10:58:00.602Z,9.00
2019-03-26T10:59:00.580Z,13.30
2019-03-26T11:00:00.581Z,11.40
2019-03-26T11:01:00.577Z,15.60
2019-03-26T11:02:00.556Z,13.80
2019-03-26T11:03:00.540Z,11.40
2019-03-26T11:04:00.524Z,9.50
2019-03-26T11:05:00.524Z,13.30
2019-03-26T11:06:00.541Z,8.80
2019-03-26T11:07:00.503Z,12.10
2019-03-26T11:08:00.480Z,13.50
2019-03-26T11:09:00.528Z,12.50
2019-03-26T11:10:00.569Z,12.30
2019-03-26T11:11:00.468Z,14.80
2019-03-26T11:12:00.458Z,9.00
2019-03-26T11:13:00.431Z,11.40
2019-03-26T11:14:00.429Z,11.90
2019-03-26T11:15:00.414Z,9.20
2019-03-26T11:16:00.397Z,12.40
2019-03-26T11:17:00.412Z,10.80
2019-03-26T11:18:00.382Z,9.90
2019-03-26T11:19:00.373Z,9.90
2019-03-26T11:20:00.394Z,11.70
2019-03-26T11:21:03.004Z,12.40
2019-03-26T11:22:00.342Z,10.40
2019-03-26T11:23:00.342Z,16.20
2019-03-26T11:24:00.309Z,13.90
2019-03-26T11:25:00.430Z,9.70
2019-03-26T11:26:00.290Z,13.50
2019-03-26T11:27:00.280Z,13.30
2019-03-26T11:28:00.290Z,8.00
2019-03-26T11:29:00.258Z,11.10
2019-03-26T11:30:00.379Z,10.60
2019-03-26T11:31:00.233Z,12.40
2019-03-26T11:32:00.226Z,12.40
2019-03-26T11:33:00.246Z,11.70
2019-03-26T11:34:00.203Z,14.30
2019-03-26T11:35:00.406Z,12.40
2019-03-26T11:36:00.189Z,10.00
2019-03-26T11:37:00.166Z,12.90
2019-03-26T11:38:00.207Z,12.00
2019-03-26T11:39:00.158Z,9.40
2019-03-26T11:40:00.388Z,13.00
2019-03-26T11:41:00.127Z,13.10
2019-03-26T11:42:00.120Z,8.40
2019-03-26T11:43:00.125Z,13.50
2019-03-26T11:44:00.094Z,10.00
2019-03-26T11:45:00.288Z,12.20
2019-03-26T11:46:00.080Z,12.50
2019-03-26T11:47:00.062Z,14.70
2019-03-26T11:48:00.070Z,14.40
2019-03-26T11:49:00.047Z,13.70
2019-03-26T11:50:00.053Z,14.70
2019-03-26T11:51:00.026Z,9.90
2019-03-26T11:52:00.034Z,13.50
2019-03-26T11:53:00.019Z,9.30
2019-03-26T11:53:59.991Z,7.80
2019-03-26T11:54:59.983Z,10.30
2019-03-26T11:55:59.973Z,13.80
2019-03-26T11:56:59.955Z,6.90
2019-03-26T11:57:59.961Z,11.40
2019-03-26T11:58:59.932Z,12.30
2019-03-26T11:59:59.926Z,9.10
2019-03-26T12:00:59.945Z,15.60
2019-03-26T12:01:59.904Z,12.30
2019-03-26T12:02:59.976Z,11.00
2019-03-26T12:03:59.881Z,9.70
2019-03-26T12:04:59.874Z,9.90
2019-03-26T12:05:59.873Z,11.90
2019-03-26T12:06:59.845Z,8.20
2019-03-26T12:07:59.857Z,12.60
2019-03-26T12:08:59.824Z,12.60
2019-03-26T12:09:59.832Z,14.20
2019-03-26T12:10:59.812Z,12.20
2019-03-26T12:11:59.803Z,10.70
2019-03-26T12:12:59.810Z,12.20
2019-03-26T12:13:59.772Z,14.60
2019-03-26T12:14:59.757Z,15.10
2019-03-26T12:15:59.753Z,10.50
2019-03-26T12:16:59.875Z,10.70
2019-03-26T12:17:59.747Z,10.20
2019-03-26T12:18:59.716Z,11.50
2019-03-26T12:20:00.505Z,17.00
2019-03-26T12:20:59.694Z,17.10
2019-03-26T12:21:59.705Z,10.60
2019-03-26T12:22:59.701Z,11.40
2019-03-26T12:23:59.666Z,10.80
2019-03-26T12:24:59.674Z,11.20
2019-03-26T12:25:59.649Z,11.20
2019-03-26T12:26:59.641Z,11.70
2019-03-26T12:27:59.633Z,14.50
2019-03-26T12:28:59.611Z,12.30
2019-03-26T12:29:59.603Z,10.20
2019-03-26T12:30:59.585Z,10.40
2019-03-26T12:31:59.579Z,12.50
2019-03-26T12:32:59.610Z,14.80
2019-03-26T12:33:59.555Z,12.20
2019-03-26T12:34:59.545Z,9.90
2019-03-26T12:35:59.532Z,12.40
2019-03-26T12:36:59.528Z,11.70
2019-03-26T12:37:59.508Z,13.30
2019-03-26T12:38:59.536Z,14.00
2019-03-26T12:40:00.615Z,12.20
2019-03-26T12:40:59.480Z,12.00
2019-03-26T12:41:59.488Z,12.70
2019-03-26T12:42:59.458Z,12.10
2019-03-26T12:43:59.490Z,14.50
2019-03-26T12:44:59.451Z,12.70
2019-03-26T12:46:01.873Z,13.90
2019-03-26T12:46:59.540Z,14.50
2019-03-26T12:47:59.405Z,10.90
2019-03-26T12:48:59.464Z,10.70
2019-03-26T12:49:59.401Z,10.50
2019-03-26T12:50:59.373Z,12.20
2019-03-26T12:51:59.360Z,12.60
2019-03-26T12:52:59.362Z,12.60
2019-03-26T12:53:59.371Z,14.20